createdAt,value
2019-03-27T00:01:01.874Z,99.90
2019-03-27T00:03:31.949Z,99.90
2019-03-27T00:06:02.276Z,99.90
2019-03-27T00:08:32.293Z,99.90
2019-03-27T00:11:02.269Z,99.90
2019-03-27T00:13:32.412Z,99.90
2019-03-27T00:16:02.495Z,99.90
2019-03-27T00:18:32.486Z,99.90
2019-03-27T00:21:02.474Z,99.90
2019-03-27T00:23:32.567Z,99.90
2019-03-27T00:26:03.006Z,99.90
2019-03-27T00:28:33.097Z,99.90
2019-03-27T00:31:04.006Z,99.90
2019-03-27T00:33:34.939Z,99.90
2019-03-27T00:36:05.123Z,99.90
2019-03-27T00:38:35.257Z,99.90
2019-03-27T00:41:05.278Z,99.90
2019-03-27T00:43:35.786Z,99.90
2019-03-27T00:46:05.752Z,99.90
2019-03-27T00:48:35.742Z,99.90
2019-03-27T00:51:05.674Z,99.90
2019-03-27T00:53:35.650Z,99.90
2019-03-27T00:56:05.689Z,99.90
2019-03-27T00:58:35.655Z,99.90
2019-03-27T01:01:15.393Z,99.90
2019-03-27T01:03:45.884Z,99.90
2019-03-27T01:06:15.938Z,99.90
2019-03-27T01:08:45.953Z,99.90
2019-03-27T01:11:16.199Z,99.90
2019-03-27T01:13:46.690Z,99.90
2019-03-27T01:16:16.746Z,99.90
2019-03-27T01:18:46.751Z,99.90
2019-03-27T01:21:16.842Z,99.90
2019-03-27T01:23:46.926Z,99.90
2019-03-27T01:26:17.009Z,99.90
2019-03-27T01:28:47.008Z,99.90
2019-03-27T01:31:17.095Z,99.90
2019-03-27T01:33:47.135Z,99.90
2019-03-27T01:36:17.109Z,99.90
2019-03-27T01:38:47.131Z,99.90
2019-03-27T01:41:17.150Z,99.90
2019-03-27T01:43:47.094Z,99.90
2019-03-27T01:46:17.631Z,99.90
2019-03-27T01:48:47.602Z,99.90
2019-03-27T01:51:17.690Z,99.90
2019-03-27T01:53:47.990Z,99.90
2019-03-27T01:56:17.997Z,99.90
2019-03-27T01:58:47.984Z,99.90
2019-03-27T02:01:17.953Z,99.90
2019-03-27T02:03:47.832Z,99.90
2019-03-27T02:06:18.006Z,99.90
2019-03-27T02:08:48.319Z,99.90
2019-03-27T02:11:18.318Z,99.90
2019-03-27T02:13:48.309Z,99.90
2019-03-27T02:16:18.304Z,99.90
2019-03-27T02:18:48.311Z,99.90
2019-03-27T02:21:18.208Z,99.90
2019-03-27T02:23:48.185Z,99.90
2019-03-27T02:26:18.210Z,99.90
2019-03-27T02:28:48.249Z,99.90
2019-03-27T02:31:19.304Z,99.90
2019-03-27T02:33:49.289Z,99.90
2019-03-27T02:36:19.308Z,99.90
2019-03-27T02:38:49.265Z,99.90
2019-03-27T02:41:19.284Z,99.90
2019-03-27T02:43:49.318Z,99.90
2019-03-27T02:46:24.976Z,99.90
2019-03-27T02:48:52.604Z,99.90
2019-03-27T02:51:22.604Z,99.90
2019-03-27T02:53:52.653Z,99.90
2019-03-27T02:56:22.706Z,99.90
2019-03-27T02:58:53.077Z,99.90
2019-03-27T03:01:23.271Z,99.90
2019-03-27T03:03:53.242Z,99.90
2019-03-27T03:06:23.295Z,99.90
2019-03-27T03:08:53.482Z,99.90
2019-03-27T03:11:23.578Z,99.90
2019-03-27T03:13:53.477Z,99.90
2019-03-27T03:16:40.869Z,99.90
2019-03-27T03:18:56.369Z,99.90
2019-03-27T03:21:26.438Z,99.90
2019-03-27T03:23:56.498Z,99.90
2019-03-27T03:26:26.487Z,99.90
2019-03-27T03:28:56.378Z,99.90
2019-03-27T03:31:26.321Z,99.90
2019-03-27T03:33:56.439Z,99.90
2019-03-27T03:36:26.672Z,99.90
2019-03-27T03:38:56.982Z,99.90
2019-03-27T03:41:27.013Z,99.90
2019-03-27T03:43:56.963Z,99.90
2019-03-27T03:46:27.055Z,99.90
2019-03-27T03:48:56.999Z,99.90
2019-03-27T03:51:27.259Z,99.90
2019-03-27T03:53:57.165Z,99.90
2019-03-27T03:56:28.059Z,99.90
2019-03-27T03:58:59.068Z,99.90
2019-03-27T04:01:30.713Z,99.90
2019-03-27T04:04:01.217Z,99.90
2019-03-27T04:06:31.241Z,99.90
2019-03-27T04:09:01.240Z,99.90
2019-03-27T04:11:31.191Z,99.90
2019-03-27T04:14:01.150Z,99.90
2019-03-27T04:16:31.070Z,99.90
2019-03-27T04:19:01.009Z,99.90
2019-03-27T04:21:31.034Z,99.90
2019-03-27T04:24:01.029Z,99.90
2019-03-27T04:26:33.567Z,99.90
2019-03-27T04:29:02.775Z,99.90
2019-03-27T04:31:32.754Z,99.90
2019-03-27T04:34:02.957Z,99.90
2019-03-27T04:36:33.054Z,99.90
2019-03-27T04:39:03.960Z,99.90
2019-03-27T04:41:33.879Z,99.90
2019-03-27T04:44:04.200Z,99.90
2019-03-27T04:46:34.179Z,99.90
2019-03-27T04:49:07.685Z,99.90
2019-03-27T04:51:37.498Z,99.90
2019-03-27T04:54:07.659Z,99.90
2019-03-27T04:56:38.676Z,99.90
2019-03-27T04:59:08.657Z,99.90
2019-03-27T05:01:38.698Z,99.90
2019-03-27T05:04:08.892Z,99.90
2019-03-27T05:06:40.717Z,99.90
2019-03-27T05:09:10.692Z,99.90
2019-03-27T05:11:40.800Z,99.90
2019-03-27T05:14:10.750Z,99.90
2019-03-27T05:16:40.830Z,99.90
2019-03-27T05:19:10.940Z,99.90
2019-03-27T05:21:40.930Z,99.90
2019-03-27T05:24:10.884Z,99.90
2019-03-27T05:26:41.000Z,99.90
2019-03-27T05:29:10.967Z,99.90
2019-03-27T05:31:42.563Z,99.90
2019-03-27T05:34:14.037Z,99.90
2019-03-27T05:36:44.050Z,99.90
2019-03-27T05:39:14.738Z,99.90
2019-03-27T05:41:45.129Z,99.90
2019-03-27T05:44:15.129Z,99.90
2019-03-27T05:46:45.833Z,99.90
2019-03-27T05:49:15.884Z,99.90
2019-03-27T05:51:46.061Z,99.90
2019-03-27T05:54:16.052Z,99.90
2019-03-27T05:56:46.106Z,99.90
2019-03-27T05:59:16.106Z,99.90
2019-03-27T06:01:46.202Z,99.90
2019-03-27T06:04:20.766Z,99.90
2019-03-27T06:06:54.111Z,99.90
2019-03-27T06:09:24.171Z,99.90
2019-03-27T06:11:54.197Z,99.90
2019-03-27T06:14:24.216Z,99.90
2019-03-27T06:16:54.337Z,99.90
2019-03-27T06:19:24.310Z,99.90
2019-03-27T06:21:54.388Z,99.90
2019-03-27T06:24:24.427Z,99.90
2019-03-27T06:26:54.470Z,99.90
2019-03-27T06:29:24.438Z,99.90
2019-03-27T06:31:54.507Z,99.90
2019-03-27T06:34:24.567Z,99.90
2019-03-27T06:36:54.679Z,99.90
2019-03-27T06:39:24.798Z,99.90
2019-03-27T06:41:54.803Z,99.90
2019-03-27T06:44:25.064Z,99.90
2019-03-27T06:46:55.067Z,99.90
2019-03-27T06:49:25.253Z,99.90
2019-03-27T06:51:55.238Z,99.90
2019-03-27T06:54:25.333Z,99.90
2019-03-27T06:56:55.393Z,99.90
2019-03-27T06:59:25.378Z,99.90
2019-03-27T07:01:55.423Z,99.90
2019-03-27T07:04:25.548Z,99.90
2019-03-27T07:06:55.747Z,99.90
2019-03-27T07:09:26.174Z,99.90
2019-03-27T07:11:56.178Z,99.90
2019-03-27T07:14:26.222Z,99.90
2019-03-27T07:16:56.215Z,99.90
2019-03-27T07:19:26.311Z,99.90
2019-03-27T07:21:56.336Z,99.90
2019-03-27T07:24:26.390Z,99.90
2019-03-27T07:26:56.490Z,99.90
2019-03-27T07:29:26.699Z,99.90
2019-03-27T07:31:56.751Z,99.90
2019-03-27T07:34:26.711Z,99.90
2019-03-27T07:36:56.731Z,99.90
2019-03-27T07:39:26.810Z,99.90
2019-03-27T07:41:56.876Z,99.90
2019-03-27T07:44:26.878Z,99.90
2019-03-27T07:46:56.804Z,99.90
2019-03-27T07:49:26.823Z,99.90
2019-03-27T07:51:56.787Z,99.90
2019-03-27T07:54:26.787Z,99.90
2019-03-27T07:56:56.909Z,99.90
2019-03-27T07:59:26.922Z,99.90
2019-03-27T08:01:57.031Z,99.90
2019-03-27T08:04:26.971Z,99.90
2019-03-27T08:06:57.103Z,99.90
2019-03-27T08:09:27.210Z,99.90
2019-03-27T08:11:57.206Z,99.90
2019-03-27T08:14:27.142Z,99.90
2019-03-27T08:16:57.645Z,99.90
2019-03-27T08:19:27.607Z,99.90
2019-03-27T08:21:57.623Z,99.90
2019-03-27T08:24:27.953Z,99.90
2019-03-27T08:26:57.948Z,99.90
2019-03-27T08:29:27.965Z,99.90
2019-03-27T08:31:57.936Z,99.90
2019-03-27T08:34:28.020Z,99.90
2019-03-27T08:36:58.135Z,99.90
2019-03-27T08:39:28.141Z,99.90
2019-03-27T08:41:58.196Z,99.90
2019-03-27T08:44:28.205Z,99.90
2019-03-27T08:46:58.292Z,99.90
2019-03-27T08:49:28.311Z,99.90
2019-03-27T08:51:58.341Z,99.90
2019-03-27T08:54:28.352Z,99.90
2019-03-27T08:56:58.619Z,99.90
2019-03-27T08:59:28.766Z,99.90
2019-03-27T09:01:58.792Z,99.90
2019-03-27T09:04:28.799Z,99.90
2019-03-27T09:06:58.898Z,99.90
2019-03-27T09:09:28.914Z,99.90
2019-03-27T09:11:58.902Z,99.90
2019-03-27T09:14:28.932Z,99.90
2019-03-27T09:16:59.098Z,99.90
2019-03-27T09:19:35.666Z,99.90
2019-03-27T09:22:00.847Z,99.60
2019-03-27T09:24:30.760Z,99.60
2019-03-27T09:27:00.901Z,99.50
2019-03-27T09:29:30.958Z,99.80
2019-03-27T09:32:01.049Z,99.60
2019-03-27T09:34:31.170Z,99.30
2019-03-27T09:37:01.203Z,98.80
2019-03-27T09:39:31.610Z,98.60
2019-03-27T09:42:01.949Z,99.10
2019-03-27T09:44:31.969Z,99.10
2019-03-27T09:47:02.144Z,98.90
2019-03-27T09:49:32.175Z,98.70
2019-03-27T09:52:02.180Z,98.40
2019-03-27T09:54:32.231Z,98.00
2019-03-27T09:57:02.238Z,98.10
2019-03-27T09:59:32.256Z,97.50
2019-03-27T10:02:02.235Z,97.90
2019-03-27T10:04:32.275Z,97.60
2019-03-27T10:07:02.288Z,97.00
2019-03-27T10:09:32.437Z,96.70
2019-03-27T10:12:02.529Z,96.80
2019-03-27T10:14:32.743Z,96.20
2019-03-27T10:17:02.740Z,95.30
2019-03-27T10:19:32.612Z,95.10
2019-03-27T10:22:02.636Z,94.90
2019-03-27T10:24:32.610Z,95.10
2019-03-27T10:27:03.084Z,94.70
2019-03-27T10:29:33.549Z,94.40
2019-03-27T10:32:03.602Z,94.10
2019-03-27T10:34:33.519Z,94.40
2019-03-27T10:37:03.602Z,94.50
2019-03-27T10:39:33.534Z,94.10
2019-03-27T10:42:03.594Z,94.00
2019-03-27T10:44:33.715Z,93.60
2019-03-27T10:47:03.755Z,93.20
2019-03-27T10:49:34.545Z,93.50
2019-03-27T10:52:04.763Z,93.60
2019-03-27T10:54:36.038Z,93.90
2019-03-27T10:57:06.021Z,93.40
2019-03-27T10:59:36.089Z,93.10
2019-03-27T11:02:07.397Z,92.30
2019-03-27T11:04:37.517Z,91.70
2019-03-27T11:07:07.557Z,91.80
2019-03-27T11:09:37.536Z,92.40
2019-03-27T11:12:07.631Z,91.80
2019-03-27T11:14:38.453Z,91.40
2019-03-27T11:17:08.643Z,91.10
2019-03-27T11:19:38.716Z,90.30
2019-03-27T11:22:08.777Z,88.00
2019-03-27T11:24:41.022Z,89.80
2019-03-27T11:27:11.061Z,90.20
2019-03-27T11:29:41.076Z,90.50
2019-03-27T11:32:11.844Z,90.70
2019-03-27T11:34:41.910Z,90.00
2019-03-27T11:37:12.062Z,88.00
2019-03-27T11:39:42.117Z,88.20
2019-03-27T11:42:12.324Z,88.40
2019-03-27T11:44:42.610Z,89.30
2019-03-27T11:47:12.638Z,90.10
2019-03-27T11:49:42.941Z,88.90
2019-03-27T11:52:12.960Z,89.60
2019-03-27T11:54:42.930Z,88.20
2019-03-27T11:57:12.962Z,88.00
2019-03-27T11:59:53.336Z,87.20
2019-03-27T12:02:15.050Z,88.40
2019-03-27T12:04:45.123Z,88.60
2019-03-27T12:07:15.259Z,88.60
2019-03-27T12:09:45.285Z,88.70
2019-03-27T12:12:15.351Z,89.30
2019-03-27T12:14:45.386Z,88.80
2019-03-27T12:17:15.590Z,88.60
2019-03-27T12:19:45.906Z,89.10
2019-03-27T12:22:15.967Z,87.00
2019-03-27T12:24:46.047Z,87.70
2019-03-27T12:27:16.106Z,87.40
2019-03-27T12:29:46.211Z,86.00
2019-03-27T12:32:16.471Z,87.30
2019-03-27T12:34:46.619Z,86.20
2019-03-27T12:37:17.035Z,86.40
2019-03-27T12:39:48.175Z,86.40
2019-03-27T12:42:18.274Z,85.60
2019-03-27T12:44:48.434Z,85.60
2019-03-27T12:47:18.971Z,84.70
2019-03-27T12:49:51.811Z,85.60
2019-03-27T12:52:21.842Z,86.30
2019-03-27T12:54:51.984Z,86.10
2019-03-27T12:57:22.118Z,86.90
2019-03-27T12:59:52.180Z,87.40
2019-03-27T13:02:22.183Z,86.80
2019-03-27T13:04:52.302Z,87.80
2019-03-27T13:07:22.321Z,87.80
2019-03-27T13:09:52.447Z,86.40
2019-03-27T13:12:24.452Z,87.00
2019-03-27T13:14:54.479Z,86.80
2019-03-27T13:17:24.508Z,87.20
2019-03-27T13:19:54.504Z,88.00
2019-03-27T13:22:25.011Z,88.80
2019-03-27T13:24:55.044Z,89.30
2019-03-27T13:27:25.106Z,89.60
2019-03-27T13:29:55.214Z,88.60
2019-03-27T13:32:25.496Z,87.70
2019-03-27T13:34:55.652Z,87.50
2019-03-27T13:37:25.754Z,87.50
2019-03-27T13:39:55.808Z,87.00
2019-03-27T13:42:26.475Z,87.90
2019-03-27T13:44:56.611Z,88.70
2019-03-27T13:47:26.669Z,89.80
2019-03-27T13:49:56.678Z,88.50
2019-03-27T13:52:26.805Z,87.40
2019-03-27T13:54:56.854Z,87.70
2019-03-27T13:57:26.925Z,87.60
2019-03-27T13:59:56.907Z,88.00
2019-03-27T14:02:26.984Z,87.50
2019-03-27T14:04:57.068Z,86.60
2019-03-27T14:07:27.172Z,86.80
2019-03-27T14:09:57.287Z,87.20
2019-03-27T14:12:27.335Z,87.40
2019-03-27T14:14:57.351Z,87.20
2019-03-27T14:17:27.383Z,87.30
2019-03-27T14:19:57.361Z,85.40
2019-03-27T14:22:27.419Z,86.10
2019-03-27T14:24:57.367Z,86.20
2019-03-27T14:27:27.405Z,85.60
2019-03-27T14:29:57.565Z,85.70
2019-03-27T14:32:27.629Z,86.30
2019-03-27T14:34:57.779Z,85.10
2019-03-27T14:37:27.862Z,85.80
2019-03-27T14:39:57.975Z,87.30
2019-03-27T14:42:28.024Z,87.40
2019-03-27T14:44:58.065Z,87.40
2019-03-27T14:47:28.225Z,88.10
2019-03-27T14:49:58.316Z,87.80
2019-03-27T14:52:28.443Z,87.50
2019-03-27T14:54:58.561Z,87.40
2019-03-27T14:57:28.607Z,87.50
2019-03-27T15:00:00.357Z,87.70
2019-03-27T15:02:30.552Z,87.20
2019-03-27T15:05:00.581Z,86.70
2019-03-27T15:07:30.635Z,87.20
2019-03-27T15:10:00.739Z,86.40
2019-03-27T15:12:30.838Z,87.70
2019-03-27T15:15:00.936Z,87.30
2019-03-27T15:17:31.215Z,87.80
2019-03-27T15:20:01.342Z,89.30
2019-03-27T15:22:31.437Z,90.30
2019-03-27T15:25:01.536Z,90.10
2019-03-27T15:27:31.700Z,90.40
2019-03-27T15:30:01.860Z,89.30
2019-03-27T15:32:32.456Z,88.70
2019-03-27T15:35:02.643Z,89.30
2019-03-27T15:37:32.658Z,90.00
2019-03-27T15:40:04.376Z,90.00
2019-03-27T15:42:34.559Z,89.50
2019-03-27T15:45:06.157Z,89.30
2019-03-27T15:47:36.281Z,89.00
2019-03-27T15:50:07.553Z,89.30
2019-03-27T15:52:37.667Z,90.30
2019-03-27T15:55:08.345Z,90.70
2019-03-27T15:57:38.732Z,90.30
2019-03-27T16:00:10.235Z,90.40
2019-03-27T16:02:40.309Z,90.80
2019-03-27T16:05:10.540Z,91.00
2019-03-27T16:07:40.608Z,90.80
2019-03-27T16:10:11.024Z,90.90
2019-03-27T16:12:41.118Z,91.00
2019-03-27T16:15:11.481Z,91.20
2019-03-27T16:17:42.091Z,91.60
2019-03-27T16:20:12.234Z,91.90
2019-03-27T16:22:50.547Z,92.00
2019-03-27T16:25:14.209Z,91.90
2019-03-27T16:27:44.232Z,92.10
2019-03-27T16:30:16.978Z,91.90
2019-03-27T16:32:46.278Z,91.90
2019-03-27T16:35:16.642Z,92.20
2019-03-27T16:37:46.762Z,92.40
2019-03-27T16:40:18.337Z,92.40
2019-03-27T16:42:48.631Z,92.90
2019-03-27T16:45:18.742Z,92.80
2019-03-27T16:47:49.133Z,92.80
2019-03-27T16:50:19.252Z,92.70
2019-03-27T16:52:58.441Z,92.90
2019-03-27T16:55:21.439Z,93.00
2019-03-27T16:57:52.453Z,93.10
2019-03-27T17:00:22.550Z,93.50
2019-03-27T17:02:52.707Z,93.30
2019-03-27T17:05:22.924Z,93.40
2019-03-27T17:07:53.177Z,93.30
2019-03-27T17:10:23.365Z,93.50
2019-03-27T17:12:53.529Z,93.50
2019-03-27T17:15:23.800Z,93.60
2019-03-27T17:17:55.127Z,93.60
2019-03-27T17:20:25.335Z,93.60
2019-03-27T17:22:55.535Z,93.60
2019-03-27T17:25:25.759Z,93.80
2019-03-27T17:27:56.021Z,93.80
2019-03-27T17:30:26.784Z,93.70
2019-03-27T17:32:58.542Z,93.90
2019-03-27T17:35:28.834Z,94.40
2019-03-27T17:37:59.901Z,94.20
2019-03-27T17:40:30.097Z,94.60
2019-03-27T17:43:00.236Z,94.70
2019-03-27T17:45:30.617Z,94.70
2019-03-27T17:48:01.158Z,94.90
2019-03-27T17:50:31.491Z,95.20
2019-03-27T17:53:01.703Z,95.40
2019-03-27T17:55:31.887Z,95.50
2019-03-27T17:58:02.543Z,95.70
2019-03-27T18:00:48.599Z,96.40
2019-03-27T18:03:18.857Z,96.30
2019-03-27T18:05:48.989Z,96.40
2019-03-27T18:08:19.264Z,96.60
2019-03-27T18:10:49.711Z,96.70
2019-03-27T18:13:19.928Z,97.00
2019-03-27T18:15:52.089Z,97.20
2019-03-27T18:18:21.978Z,97.20
2019-03-27T18:20:52.209Z,97.30
2019-03-27T18:23:22.429Z,97.20
2019-03-27T18:25:53.067Z,98.00
2019-03-27T18:28:23.159Z,98.70
2019-03-27T18:30:53.415Z,98.40
2019-03-27T18:33:23.484Z,98.20
2019-03-27T18:35:53.792Z,98.40
2019-03-27T18:38:24.006Z,98.60
2019-03-27T18:40:54.336Z,98.90
2019-03-27T18:43:24.723Z,99.10
2019-03-27T18:45:54.960Z,99.10
2019-03-27T18:48:25.094Z,99.20
2019-03-27T18:50:55.798Z,99.70
2019-03-27T18:53:26.146Z,99.90
2019-03-27T18:55:56.355Z,99.90
2019-03-27T18:58:26.683Z,99.80
2019-03-27T19:00:57.014Z,99.80
2019-03-27T19:03:27.106Z,99.90
2019-03-27T19:05:57.472Z,99.90
2019-03-27T19:08:28.518Z,99.90
2019-03-27T19:10:59.209Z,99.90
2019-03-27T19:13:29.738Z,99.90
2019-03-27T19:16:00.385Z,99.90
2019-03-27T19:18:30.920Z,99.90
2019-03-27T19:21:01.265Z,99.90
2019-03-27T19:23:31.389Z,99.90
2019-03-27T19:26:01.661Z,99.90
2019-03-27T19:28:34.069Z,99.90
2019-03-27T19:31:04.440Z,99.90
2019-03-27T19:33:36.303Z,99.90
2019-03-27T19:36:07.522Z,99.90
2019-03-27T19:38:38.752Z,99.90
2019-03-27T19:41:09.167Z,99.90
2019-03-27T19:43:40.019Z,99.90
2019-03-27T19:46:10.698Z,99.90
2019-03-27T19:48:43.291Z,99.90
2019-03-27T19:51:13.733Z,99.90
2019-03-27T19:53:44.118Z,99.90
2019-03-27T19:56:14.466Z,99.90
2019-03-27T19:58:44.785Z,99.90
2019-03-27T20:01:16.183Z,99.90
2019-03-27T20:03:50.506Z,99.90
2019-03-27T20:06:21.722Z,99.90
2019-03-27T20:08:56.494Z,99.90
2019-03-27T20:11:31.354Z,99.90
2019-03-27T20:14:03.445Z,99.90
2019-03-27T20:16:34.513Z,99.90
2019-03-27T20:19:08.822Z,99.90
2019-03-27T20:21:40.590Z,99.90
2019-03-27T20:24:10.784Z,99.90
2019-03-27T20:26:41.161Z,99.90
2019-03-27T20:29:12.103Z,99.90
2019-03-27T20:31:42.343Z,99.90
2019-03-27T20:34:14.096Z,99.90
2019-03-27T20:36:45.982Z,99.90
2019-03-27T20:39:16.554Z,99.90
2019-03-27T20:41:47.782Z,99.90
2019-03-27T20:44:20.536Z,99.90
2019-03-27T20:46:51.519Z,99.90
2019-03-27T20:49:22.294Z,99.90
2019-03-27T20:51:54.958Z,99.90
2019-03-27T20:54:24.676Z,99.90
2019-03-27T20:56:57.442Z,99.90
2019-03-27T20:59:27.789Z,99.90
2019-03-27T21:01:58.153Z,99.90
2019-03-27T21:04:28.874Z,99.90
2019-03-27T21:06:58.986Z,99.90
2019-03-27T21:09:29.419Z,99.90
2019-03-27T21:11:59.618Z,99.90
2019-03-27T21:14:30.028Z,99.90
2019-03-27T21:17:00.108Z,99.90
2019-03-27T21:19:30.390Z,99.90
2019-03-27T21:22:00.668Z,99.90
2019-03-27T21:24:31.078Z,99.90
2019-03-27T21:27:07.793Z,99.90
2019-03-27T21:29:37.897Z,99.90
2019-03-27T21:32:08.079Z,99.90
2019-03-27T21:34:39.201Z,99.90
2019-03-27T21:37:09.323Z,99.90
2019-03-27T21:39:39.495Z,99.90
2019-03-27T21:42:09.611Z,99.90
2019-03-27T21:44:39.856Z,99.90
2019-03-27T21:47:09.964Z,99.90
2019-03-27T21:49:40.309Z,99.90
2019-03-27T21:52:11.154Z,99.90
2019-03-27T21:54:42.313Z,99.90
2019-03-27T21:57:12.596Z,99.90
2019-03-27T21:59:43.402Z,99.90
2019-03-27T22:02:13.556Z,99.90
2019-03-27T22:04:43.639Z,99.90
2019-03-27T22:07:14.001Z,99.90
2019-03-27T22:09:44.799Z,99.90
2019-03-27T22:12:18.565Z,99.90
2019-03-27T22:14:48.735Z,99.90
2019-03-27T22:17:18.828Z,99.90
2019-03-27T22:19:50.139Z,99.90
2019-03-27T22:22:20.212Z,99.90
2019-03-27T22:24:50.407Z,99.90
2019-03-27T22:27:21.244Z,99.90
2019-03-27T22:29:51.372Z,99.90
2019-03-27T22:32:22.858Z,99.90
2019-03-27T22:34:53.091Z,99.90
2019-03-27T22:37:23.169Z,99.90
2019-03-27T22:39:53.399Z,99.90
2019-03-27T22:42:23.454Z,99.90
2019-03-27T22:44:53.629Z,99.90
2019-03-27T22:47:23.639Z,99.90
2019-03-27T22:49:53.791Z,99.90
2019-03-27T22:52:23.831Z,99.90
2019-03-27T22:54:53.783Z,99.90
2019-03-27T22:57:23.945Z,99.90
2019-03-27T22:59:54.079Z,99.90
2019-03-27T23:02:24.165Z,99.90
2019-03-27T23:04:54.221Z,99.90
2019-03-27T23:07:24.383Z,99.90
2019-03-27T23:09:54.811Z,99.90
2019-03-27T23:12:24.860Z,99.90
2019-03-27T23:14:54.970Z,99.90
2019-03-27T23:17:24.994Z,99.90
2019-03-27T23:19:55.040Z,99.90
2019-03-27T23:22:25.070Z,99.90
2019-03-27T23:24:55.105Z,99.90
2019-03-27T23:27:25.199Z,99.90
2019-03-27T23:29:55.297Z,99.90
2019-03-27T23:32:25.398Z,99.90
2019-03-27T23:34:55.364Z,99.90
2019-03-27T23:37:25.377Z,99.90
2019-03-27T23:39:58.302Z,99.90
2019-03-27T23:42:29.548Z,99.90
2019-03-27T23:44:59.782Z,99.90
2019-03-27T23:47:29.776Z,99.90
2019-03-27T23:49:59.766Z,99.90
2019-03-27T23:52:29.733Z,99.90
2019-03-27T23:54:59.867Z,99.90
2019-03-27T23:57:30.604Z,99.90
